Wabana, Canada
Current Conditions -  °F | °C
As of 11:00 PM on Thursday 18 Dec 2014 (Local Time) from CYYT Reporting Station
Light Rain Light Rain  
Wind Chill: 34°   Ceiling: 300
Heat Index: 43°   Visibility: 2mi
Dew Point: 43°   Wind: 23mph
Humidity: 100%   Direction: 160°SSE
Pressure: 29.58"   Gusts: 30mph
Location:  47.65°N, 52.93°W
Report Text: CYYT 190200Z 16020G26KT 2SM -RA BR OVC003 06/06 A2958 RMK SF8 SLP023
Loading
Personal Weather Stations






























Interactive Weather Map New forecast layout! Learn more

10-Day Weather Forecast

Advertisements
Track Severe Weather on mobile